Terminal Aerodrome Forecast
Issued by NWS

Current Version | Previous Version | Graphics & Text | Print | Product List | Glossary On
Versions: 1 2 3 4 5 6 7 8 9 10 11 12 13 14 15 16 17 18 19 20 21 22
000
FTUS41 KPBZ 211100
TAFHLG
TAF
KHLG 211138Z 2112/2212 VRB03KT P6SM BKN120
      TEMPO 2112/2114 2SM BR
     FM211500 25010KT P6SM BKN050
     FM211800 24009KT P6SM VCTS BKN040CB
     FM220200 VRB04KT P6SM SCT040
     FM220800 VRB03KT P6SM SCT040 BKN080=

USA.gov is the U.S. government's official web portal to all federal, state and local government web resources and services.